Alpine, Arizona
Current Conditions -  °F | °C
As of 2:54 AM on Sunday 21 Dec 2014 (Local Time) from KSJN Reporting Station
Clear Clear  
Wind Chill: 29°   Ceiling: Unl
Heat Index: 29°   Visibility: 10mi
Dew Point: 25°   Wind: 3mph
Humidity: 85%   Direction: 190°S
Pressure: 30.11"   Gusts: NA
Location:  33.85°N, 109.14°W
Report Text: KSJN 210954Z AUTO 19003KT 10SM CLR M02/M04 A3011 RMK AO2 SLP181 T10171039
Loading
Personal Weather Stations






























Interactive Weather Map New forecast layout! Learn more

10-Day Weather Forecast

Advertisements
Track Severe Weather on mobile